Gan-tribute — C6YK6 — position and weather

sailwx.info

Track history (hours):
 
Tides and Currents Weather Stations Pressure Air Temp Water Temp Dewpoint Dewpoint Depression Visibility Wind Speed Wind Dir Waves Ship Positions

Gan-tribute

Last reported at 2018-Feb-13 17:02 UTC. Time now 2018-Feb-22 03:30 UTC.
Position N 09°11' W 079°52'.
Warning: this ship's position is 8 days out of date.

Length 183 m; draft 11.5 m.

Type: Tanker. MMSI: 311036600.

Date/timePositionNaut miles runAvg speedWind from/ knotsBaromVisibWave heightAir tempDewpointWater temp
2018-Feb-13 17:02N 09°11' W 079°52'0 7.8
2018-Feb-13 17:00N 09°11' W 079°52'4 8.9
2018-Feb-13 16:30N 09°13' W 079°55'3 5.8
2018-Feb-13 16:01N 09°16' W 079°55'0 0.3
2018-Feb-13 15:30N 09°16' W 079°55'0 0.4
2018-Feb-13 15:00N 09°17' W 079°55'0 0.5
2018-Feb-13 14:31N 09°17' W 079°55'1 1.9
2018-Feb-13 14:00N 09°18' W 079°55'3 5.9
2018-Feb-13 13:31N 09°21' W 079°55'2 3.1
2018-Feb-13 13:00N 09°22' W 079°56'0 0.1
2018-Feb-13 12:30N 09°22' W 079°56'0 0.0
2018-Feb-13 12:00N 09°22' W 079°56'0 0.0
2018-Feb-13 11:30N 09°22' W 079°56'0 0.0
2018-Feb-13 11:00N 09°22' W 079°56'0 0.0
2018-Feb-13 10:30N 09°22' W 079°56'0 0.0
2018-Feb-13 10:00N 09°22' W 079°56'0 0.0
2018-Feb-13 09:30N 09°22' W 079°56'0 0.0
2018-Feb-13 09:00N 09°22' W 079°56'0 0.0
2018-Feb-13 08:30N 09°22' W 079°56'0 0.0
2018-Feb-13 08:00N 09°22' W 079°56'0 0.0
2018-Feb-13 07:30N 09°22' W 079°56'0 0.0
2018-Feb-13 07:00N 09°22' W 079°56'0 0.0
2018-Feb-13 06:30N 09°22' W 079°56'0 0.0
2018-Feb-13 06:00N 09°22' W 079°56'0 0.0
2018-Feb-13 05:30N 09°22' W 079°56'0 0.0
2018-Feb-13 05:00N 09°22' W 079°56'0 0.0
2018-Feb-13 04:30N 09°22' W 079°56'0 0.0
2018-Feb-13 04:00N 09°22' W 079°56'0 0.0
2018-Feb-13 03:30N 09°22' W 079°56'0 0.0
2018-Feb-13 03:00N 09°22' W 079°56'0 0.0
2018-Feb-13 02:30N 09°22' W 079°56'0 0.0
2018-Feb-13 02:00N 09°22' W 079°56'0 0.0
2018-Feb-13 01:30N 09°22' W 079°56'0 0.0
2018-Feb-13 01:00N 09°22' W 079°56'0 0.0
2018-Feb-13 00:30N 09°22' W 079°56'0 0.0
2018-Feb-13 00:00N 09°22' W 079°56'0 0.0
2018-Feb-12 23:30N 09°22' W 079°56'0 0.0
2018-Feb-12 23:00N 09°22' W 079°56'0 0.0
2018-Feb-12 22:30N 09°22' W 079°56'0 0.0
2018-Feb-12 22:00N 09°22' W 079°56'0 0.0
2018-Feb-12 21:30N 09°22' W 079°56'0 0.0
2018-Feb-12 21:00N 09°22' W 079°56'0 0.0
2018-Feb-12 20:30N 09°22' W 079°56'0 0.0
2018-Feb-12 20:00N 09°22' W 079°56'0 0.0
2018-Feb-12 19:30N 09°22' W 079°56'0 0.0
2018-Feb-12 19:00N 09°22' W 079°56'0 0.0
2018-Feb-12 18:30N 09°22' W 079°56'0 0.0
2018-Feb-12 18:00N 09°22' W 079°56'0 0.0
2018-Feb-12 17:30N 09°22' W 079°56'0 0.0
2018-Feb-12 17:00N 09°22' W 079°56'0 0.0
2018-Feb-12 16:30N 09°22' W 079°56'0 0.0
2018-Feb-12 16:00N 09°22' W 079°56'0 0.0
2018-Feb-12 15:15N 09°22' W 079°56'0 0.0
2018-Feb-12 15:00N 09°22' W 079°56'0 0.0
2018-Feb-12 14:30N 09°22' W 079°56'0 0.0
2018-Feb-12 14:00N 09°22' W 079°56'0 0.0
2018-Feb-12 13:30N 09°22' W 079°56'0 0.0
2018-Feb-12 13:00N 09°22' W 079°56'0 0.0
2018-Feb-12 12:30N 09°22' W 079°56'0 0.0
2018-Feb-12 12:00N 09°22' W 079°56'0 0.0
2018-Feb-12 11:30N 09°22' W 079°56'0 0.0
2018-Feb-12 11:00N 09°22' W 079°56'0 0.0
2018-Feb-12 10:30N 09°22' W 079°56'0 0.0
2018-Feb-12 10:00N 09°22' W 079°56'0 0.0
2018-Feb-12 09:30N 09°22' W 079°56'0 0.0
2018-Feb-12 09:00N 09°22' W 079°56'0 0.0
2018-Feb-12 08:30N 09°22' W 079°56'0 0.0
2018-Feb-12 08:00N 09°22' W 079°56'0 0.0
2018-Feb-12 07:30N 09°22' W 079°56'0 0.0
2018-Feb-12 07:00N 09°22' W 079°56'0 0.0
2018-Feb-12 06:30N 09°22' W 079°56'0 0.0
2018-Feb-12 06:00N 09°22' W 079°56'0 0.0
2018-Feb-12 05:30N 09°22' W 079°56'0 0.0
2018-Feb-12 05:00N 09°22' W 079°56'0 0.0
2018-Feb-12 04:30N 09°22' W 079°56'0 0.0
2018-Feb-12 04:00N 09°22' W 079°56'0 0.0
2018-Feb-12 03:30N 09°22' W 079°56'0 0.0
2018-Feb-12 03:00N 09°22' W 079°56'0 0.0
2018-Feb-12 02:30N 09°22' W 079°56'0 0.0
2018-Feb-12 02:00N 09°22' W 079°56'0 0.0
2018-Feb-12 01:30N 09°22' W 079°56'0 0.0
2018-Feb-12 01:00N 09°22' W 079°56'0 0.0
2018-Feb-12 00:30N 09°22' W 079°56'0 0.0
2018-Feb-12 00:00N 09°22' W 079°56'0 0.0
2018-Feb-11 23:30N 09°22' W 079°56'0 0.1
2018-Feb-11 23:00N 09°22' W 079°56'0 0.3
2018-Feb-11 22:30N 09°22' W 079°55'2 3.3
2018-Feb-11 22:00N 09°21' W 079°54'0 0.1
2018-Feb-11 21:30N 09°21' W 079°54'0 0.0
2018-Feb-11 21:00N 09°21' W 079°54'0 0.0
2018-Feb-11 20:29N 09°21' W 079°54'0 0.0
2018-Feb-11 20:00N 09°21' W 079°54'0 0.0
2018-Feb-11 19:30N 09°21' W 079°54'0 0.0
2018-Feb-11 19:00N 09°21' W 079°54'0 0.0
2018-Feb-11 18:30N 09°21' W 079°54'0 0.0
2018-Feb-11 18:00N 09°21' W 079°54'0 0.0
2018-Feb-11 17:30N 09°21' W 079°54'0 0.0
2018-Feb-11 17:00N 09°21' W 079°54'0 0.0
2018-Feb-11 16:30N 09°21' W 079°54'0 0.0
2018-Feb-11 16:00N 09°21' W 079°54'0 0.0
2018-Feb-11 15:30N 09°21' W 079°54'0 0.0
2018-Feb-11 15:00N 09°21' W 079°54'0 0.0
2018-Feb-11 14:30N 09°21' W 079°54'0 0.0
2018-Feb-11 13:59N 09°21' W 079°54'0 0.0
2018-Feb-11 13:30N 09°21' W 079°54'0 0.0
2018-Feb-11 13:00N 09°21' W 079°54'0 0.0
2018-Feb-11 12:30N 09°21' W 079°54'0 0.0
2018-Feb-11 12:00N 09°21' W 079°54'0 0.0
2018-Feb-11 11:30N 09°21' W 079°54'0 0.0
2018-Feb-11 11:00N 09°21' W 079°54'0 0.0
2018-Feb-11 10:30N 09°21' W 079°54'0 0.0
2018-Feb-11 10:00N 09°21' W 079°54'0 0.0
2018-Feb-11 09:30N 09°21' W 079°54'0 0.0
2018-Feb-11 09:00N 09°21' W 079°54'0 0.0
2018-Feb-11 08:29N 09°21' W 079°54'0 0.0
2018-Feb-11 08:00N 09°21' W 079°54'0 0.0
2018-Feb-11 07:30N 09°21' W 079°54'0 0.0
2018-Feb-11 07:00N 09°21' W 079°54'0 0.0
2018-Feb-11 06:30N 09°21' W 079°54'0 0.0
2018-Feb-11 06:00N 09°21' W 079°54'0 0.0
2018-Feb-11 05:30N 09°21' W 079°54'0 0.0
2018-Feb-11 05:00N 09°21' W 079°54'0 0.0
2018-Feb-11 04:30N 09°21' W 079°54'0 0.0
2018-Feb-11 03:59N 09°21' W 079°54'0 0.0
2018-Feb-11 03:30N 09°21' W 079°54'0 0.0
2018-Feb-11 03:00N 09°21' W 079°54'0 0.0
2018-Feb-11 02:30N 09°21' W 079°54'1 1.1
2018-Feb-11 02:00N 09°21' W 079°55'2 3.3
2018-Feb-11 01:30N 09°23' W 079°55'2 3.9
2018-Feb-11 01:00N 09°25' W 079°55'3 5.4
2018-Feb-11 00:30N 09°27' W 079°55'0 0.9
2018-Feb-10 23:58N 09°27' W 079°55'1 2.3
2018-Feb-10 23:24N 09°29' W 079°56'3 8.2
2018-Feb-10 22:59N 09°30' W 079°53'1 3.0
2018-Feb-10 22:30N 09°32' W 079°53'3 5.5
2018-Feb-10 21:58N 09°35' W 079°52'4 8.1
2018-Feb-10 21:30N 09°38' W 079°52'  
2018-Feb-05 10:16N 28°47' W 094°26'1012.5
2018-Feb-05 09:29N 28°57' W 094°26'612.5
2018-Feb-05 09:00N 29°03' W 094°25'1411.5
2018-Feb-05 07:45N 29°15' W 094°34'1011.6
2018-Feb-05 06:55N 29°21' W 094°43'910.5
2018-Feb-05 06:06N 29°27' W 094°50'610.6
2018-Feb-05 05:30N 29°32' W 094°54'510.4
2018-Feb-05 05:01N 29°36' W 094°57'5 9.7
2018-Feb-05 04:29N 29°41' W 094°59'3 7.0
2018-Feb-05 04:00N 29°44' W 095°02'  
Track history (hours):
 
Tides and Currents Weather Stations Pressure Air Temp Water Temp Dewpoint Dewpoint Depression Visibility Wind Speed Wind Dir Waves Ship Positions

Gan-tribute

Last reported at 2018-Feb-13 17:02 UTC. Time now 2018-Feb-22 03:30 UTC.
Position N 09°11' W 079°52'.
Warning: this ship's position is 8 days out of date.

Length 183 m; draft 11.5 m.

Type: Tanker. MMSI: 311036600.

Date/timePositionNaut miles runAvg speedWind from/ knotsBaromVisibWave heightAir tempDewpointWater temp
2018-Feb-13 17:02N 09°11' W 079°52'0 7.8
2018-Feb-13 17:00N 09°11' W 079°52'4 8.9
2018-Feb-13 16:30N 09°13' W 079°55'3 5.8
2018-Feb-13 16:01N 09°16' W 079°55'0 0.3
2018-Feb-13 15:30N 09°16' W 079°55'0 0.4
2018-Feb-13 15:00N 09°17' W 079°55'0 0.5
2018-Feb-13 14:31N 09°17' W 079°55'1 1.9
2018-Feb-13 14:00N 09°18' W 079°55'3 5.9
2018-Feb-13 13:31N 09°21' W 079°55'2 3.1
2018-Feb-13 13:00N 09°22' W 079°56'0 0.1
2018-Feb-13 12:30N 09°22' W 079°56'0 0.0
2018-Feb-13 12:00N 09°22' W 079°56'0 0.0
2018-Feb-13 11:30N 09°22' W 079°56'0 0.0
2018-Feb-13 11:00N 09°22' W 079°56'0 0.0
2018-Feb-13 10:30N 09°22' W 079°56'0 0.0
2018-Feb-13 10:00N 09°22' W 079°56'0 0.0
2018-Feb-13 09:30N 09°22' W 079°56'0 0.0
2018-Feb-13 09:00N 09°22' W 079°56'0 0.0
2018-Feb-13 08:30N 09°22' W 079°56'0 0.0
2018-Feb-13 08:00N 09°22' W 079°56'0 0.0
2018-Feb-13 07:30N 09°22' W 079°56'0 0.0
2018-Feb-13 07:00N 09°22' W 079°56'0 0.0
2018-Feb-13 06:30N 09°22' W 079°56'0 0.0
2018-Feb-13 06:00N 09°22' W 079°56'0 0.0
2018-Feb-13 05:30N 09°22' W 079°56'0 0.0
2018-Feb-13 05:00N 09°22' W 079°56'0 0.0
2018-Feb-13 04:30N 09°22' W 079°56'0 0.0
2018-Feb-13 04:00N 09°22' W 079°56'0 0.0
2018-Feb-13 03:30N 09°22' W 079°56'0 0.0
2018-Feb-13 03:00N 09°22' W 079°56'0 0.0
2018-Feb-13 02:30N 09°22' W 079°56'0 0.0
2018-Feb-13 02:00N 09°22' W 079°56'0 0.0
2018-Feb-13 01:30N 09°22' W 079°56'0 0.0
2018-Feb-13 01:00N 09°22' W 079°56'0 0.0
2018-Feb-13 00:30N 09°22' W 079°56'0 0.0
2018-Feb-13 00:00N 09°22' W 079°56'0 0.0
2018-Feb-12 23:30N 09°22' W 079°56'0 0.0
2018-Feb-12 23:00N 09°22' W 079°56'0 0.0
2018-Feb-12 22:30N 09°22' W 079°56'0 0.0
2018-Feb-12 22:00N 09°22' W 079°56'0 0.0
2018-Feb-12 21:30N 09°22' W 079°56'0 0.0
2018-Feb-12 21:00N 09°22' W 079°56'0 0.0
2018-Feb-12 20:30N 09°22' W 079°56'0 0.0
2018-Feb-12 20:00N 09°22' W 079°56'0 0.0
2018-Feb-12 19:30N 09°22' W 079°56'0 0.0
2018-Feb-12 19:00N 09°22' W 079°56'0 0.0
2018-Feb-12 18:30N 09°22' W 079°56'0 0.0
2018-Feb-12 18:00N 09°22' W 079°56'0 0.0
2018-Feb-12 17:30N 09°22' W 079°56'0 0.0
2018-Feb-12 17:00N 09°22' W 079°56'0 0.0
2018-Feb-12 16:30N 09°22' W 079°56'0 0.0
2018-Feb-12 16:00N 09°22' W 079°56'0 0.0
2018-Feb-12 15:15N 09°22' W 079°56'0 0.0
2018-Feb-12 15:00N 09°22' W 079°56'0 0.0
2018-Feb-12 14:30N 09°22' W 079°56'0 0.0
2018-Feb-12 14:00N 09°22' W 079°56'0 0.0
2018-Feb-12 13:30N 09°22' W 079°56'0 0.0
2018-Feb-12 13:00N 09°22' W 079°56'0 0.0
2018-Feb-12 12:30N 09°22' W 079°56'0 0.0
2018-Feb-12 12:00N 09°22' W 079°56'0 0.0
2018-Feb-12 11:30N 09°22' W 079°56'0 0.0
2018-Feb-12 11:00N 09°22' W 079°56'0 0.0
2018-Feb-12 10:30N 09°22' W 079°56'0 0.0
2018-Feb-12 10:00N 09°22' W 079°56'0 0.0
2018-Feb-12 09:30N 09°22' W 079°56'0 0.0
2018-Feb-12 09:00N 09°22' W 079°56'0 0.0
2018-Feb-12 08:30N 09°22' W 079°56'0 0.0
2018-Feb-12 08:00N 09°22' W 079°56'0 0.0
2018-Feb-12 07:30N 09°22' W 079°56'0 0.0
2018-Feb-12 07:00N 09°22' W 079°56'0 0.0
2018-Feb-12 06:30N 09°22' W 079°56'0 0.0
2018-Feb-12 06:00N 09°22' W 079°56'0 0.0
2018-Feb-12 05:30N 09°22' W 079°56'0 0.0
2018-Feb-12 05:00N 09°22' W 079°56'0 0.0
2018-Feb-12 04:30N 09°22' W 079°56'0 0.0
2018-Feb-12 04:00N 09°22' W 079°56'0 0.0
2018-Feb-12 03:30N 09°22' W 079°56'0 0.0
2018-Feb-12 03:00N 09°22' W 079°56'0 0.0
2018-Feb-12 02:30N 09°22' W 079°56'0 0.0
2018-Feb-12 02:00N 09°22' W 079°56'0 0.0
2018-Feb-12 01:30N 09°22' W 079°56'0 0.0
2018-Feb-12 01:00N 09°22' W 079°56'0 0.0
2018-Feb-12 00:30N 09°22' W 079°56'0 0.0
2018-Feb-12 00:00N 09°22' W 079°56'0 0.0
2018-Feb-11 23:30N 09°22' W 079°56'0 0.1
2018-Feb-11 23:00N 09°22' W 079°56'0 0.3
2018-Feb-11 22:30N 09°22' W 079°55'2 3.3
2018-Feb-11 22:00N 09°21' W 079°54'0 0.1
2018-Feb-11 21:30N 09°21' W 079°54'0 0.0
2018-Feb-11 21:00N 09°21' W 079°54'0 0.0
2018-Feb-11 20:29N 09°21' W 079°54'0 0.0
2018-Feb-11 20:00N 09°21' W 079°54'0 0.0
2018-Feb-11 19:30N 09°21' W 079°54'0 0.0
2018-Feb-11 19:00N 09°21' W 079°54'0 0.0
2018-Feb-11 18:30N 09°21' W 079°54'0 0.0
2018-Feb-11 18:00N 09°21' W 079°54'0 0.0
2018-Feb-11 17:30N 09°21' W 079°54'0 0.0
2018-Feb-11 17:00N 09°21' W 079°54'0 0.0
2018-Feb-11 16:30N 09°21' W 079°54'0 0.0
2018-Feb-11 16:00N 09°21' W 079°54'0 0.0
2018-Feb-11 15:30N 09°21' W 079°54'0 0.0
2018-Feb-11 15:00N 09°21' W 079°54'0 0.0
2018-Feb-11 14:30N 09°21' W 079°54'0 0.0
2018-Feb-11 13:59N 09°21' W 079°54'0 0.0
2018-Feb-11 13:30N 09°21' W 079°54'0 0.0
2018-Feb-11 13:00N 09°21' W 079°54'0 0.0
2018-Feb-11 12:30N 09°21' W 079°54'0 0.0
2018-Feb-11 12:00N 09°21' W 079°54'0 0.0
2018-Feb-11 11:30N 09°21' W 079°54'0 0.0
2018-Feb-11 11:00N 09°21' W 079°54'0 0.0
2018-Feb-11 10:30N 09°21' W 079°54'0 0.0
2018-Feb-11 10:00N 09°21' W 079°54'0 0.0
2018-Feb-11 09:30N 09°21' W 079°54'0 0.0
2018-Feb-11 09:00N 09°21' W 079°54'0 0.0
2018-Feb-11 08:29N 09°21' W 079°54'0 0.0
2018-Feb-11 08:00N 09°21' W 079°54'0 0.0
2018-Feb-11 07:30N 09°21' W 079°54'0 0.0
2018-Feb-11 07:00N 09°21' W 079°54'0 0.0
2018-Feb-11 06:30N 09°21' W 079°54'0 0.0
2018-Feb-11 06:00N 09°21' W 079°54'0 0.0
2018-Feb-11 05:30N 09°21' W 079°54'0 0.0
2018-Feb-11 05:00N 09°21' W 079°54'0 0.0
2018-Feb-11 04:30N 09°21' W 079°54'0 0.0
2018-Feb-11 03:59N 09°21' W 079°54'0 0.0
2018-Feb-11 03:30N 09°21' W 079°54'0 0.0
2018-Feb-11 03:00N 09°21' W 079°54'0 0.0
2018-Feb-11 02:30N 09°21' W 079°54'1 1.1
2018-Feb-11 02:00N 09°21' W 079°55'2 3.3
2018-Feb-11 01:30N 09°23' W 079°55'2 3.9
2018-Feb-11 01:00N 09°25' W 079°55'3 5.4
2018-Feb-11 00:30N 09°27' W 079°55'0 0.9
2018-Feb-10 23:58N 09°27' W 079°55'1 2.3
2018-Feb-10 23:24N 09°29' W 079°56'3 8.2
2018-Feb-10 22:59N 09°30' W 079°53'1 3.0
2018-Feb-10 22:30N 09°32' W 079°53'3 5.5
2018-Feb-10 21:58N 09°35' W 079°52'4 8.1
2018-Feb-10 21:30N 09°38' W 079°52'  
2018-Feb-05 10:16N 28°47' W 094°26'1012.5
2018-Feb-05 09:29N 28°57' W 094°26'612.5
2018-Feb-05 09:00N 29°03' W 094°25'1411.5
2018-Feb-05 07:45N 29°15' W 094°34'1011.6
2018-Feb-05 06:55N 29°21' W 094°43'910.5
2018-Feb-05 06:06N 29°27' W 094°50'610.6
2018-Feb-05 05:30N 29°32' W 094°54'510.4
2018-Feb-05 05:01N 29°36' W 094°57'5 9.7
2018-Feb-05 04:29N 29°41' W 094°59'3 7.0
2018-Feb-05 04:00N 29°44' W 095°02'  

Dump ship's entire track history